Time;durP1;ratioP1;P1;durP2;ratioP2;P2;SDS_P1;SDS_P2;PMS_P1;PMS_P2;Temp;Humidity;BMP_temperature;BMP_pressure;BME280_temperature;BME280_humidity;BME280_pressure;Samples;Min_cycle;Max_cycle;Signal;HPM_P1;HPM_P2
2023/03/28 00:00:07;;;;;;;11.63;7.28;;;;;;;;;;4989349;28;20302;-67
2023/03/28 00:02:32;;;;;;;11.43;7.28;;;;;;;;;;4984932;28;20034;-67
2023/03/28 00:04:58;;;;;;;11.87;7.20;;;;;;;;;;4986055;28;20618;-67
2023/03/28 00:07:25;;;;;;;12.73;7.35;;;;;;;;;;4988034;28;20018;-67
2023/03/28 00:09:51;;;;;;;12.55;7.30;;;;;;;;;;4984770;28;20061;-67
2023/03/28 00:12:16;;;;;;;10.98;7.25;;;;;;;;;;4989514;28;20132;-68
2023/03/28 00:14:42;;;;;;;12.63;7.67;;;;;;;;;;4988079;28;20388;-66
2023/03/28 00:17:07;;;;;;;11.73;7.40;;;;;;;;;;4989853;28;20276;-67
2023/03/28 00:19:33;;;;;;;12.15;8.10;;;;;;;;;;4987787;28;20794;-67
2023/03/28 00:21:58;;;;;;;12.25;8.13;;;;;;;;;;4984423;28;20030;-67
2023/03/28 00:24:24;;;;;;;11.80;7.47;;;;;;;;;;4988064;28;20033;-66
2023/03/28 00:26:53;;;;;;;11.48;7.45;;;;;;;;;;4991771;28;20030;-67
2023/03/28 00:29:19;;;;;;;12.40;8.07;;;;;;;;;;4990864;28;20026;-67
2023/03/28 00:31:45;;;;;;;12.50;7.28;;;;;;;;;;4987746;28;20030;-67
2023/03/28 00:34:11;;;;;;;13.18;8.10;;;;;;;;;;4990355;28;20045;-67
2023/03/28 00:36:37;;;;;;;12.43;7.75;;;;;;;;;;4990975;28;20107;-67
2023/03/28 00:39:06;;;;;;;12.82;7.85;;;;;;;;;;4985770;28;20124;-67
2023/03/28 00:41:32;;;;;;;9.52;5.97;;;;;;;;;;4991529;28;20022;-67
2023/03/28 00:43:58;;;;;;;13.27;7.82;;;;;;;;;;4988088;28;20357;-66
2023/03/28 00:46:25;;;;;;;12.73;7.97;;;;;;;;;;4985440;28;20052;-67
2023/03/28 00:48:52;;;;;;;11.80;7.10;;;;;;;;;;4986920;28;20022;-66
2023/03/28 00:51:19;;;;;;;12.32;7.93;;;;;;;;;;4987610;28;20038;-66
2023/03/28 00:53:44;;;;;;;12.95;7.90;;;;;;;;;;4979226;28;20034;-67
2023/03/28 00:56:13;;;;;;;12.35;7.85;;;;;;;;;;4989114;28;20057;-67
2023/03/28 00:58:41;;;;;;;12.05;7.32;;;;;;;;;;4986179;28;20029;-67
2023/03/28 01:01:07;;;;;;;13.73;7.93;;;;;;;;;;4989946;28;20049;-66
2023/03/28 01:03:33;;;;;;;11.43;7.78;;;;;;;;;;4985027;28;20497;-67
2023/03/28 01:06:00;;;;;;;12.48;7.53;;;;;;;;;;4985293;28;20476;-67
2023/03/28 01:08:28;;;;;;;12.00;8.05;;;;;;;;;;4985233;28;20037;-67
2023/03/28 01:10:53;;;;;;;12.18;7.65;;;;;;;;;;4988762;28;20026;-67
2023/03/28 01:13:20;;;;;;;13.65;7.25;;;;;;;;;;4984164;28;20099;-67
2023/03/28 01:15:47;;;;;;;13.68;7.65;;;;;;;;;;4984922;28;20077;-67
2023/03/28 01:18:15;;;;;;;10.73;6.80;;;;;;;;;;4986126;28;20088;-67
2023/03/28 01:20:45;;;;;;;16.90;8.23;;;;;;;;;;4986198;28;20038;-67
2023/03/28 01:23:25;;;;;;;12.27;8.07;;;;;;;;;;4982663;28;20030;-67
2023/03/28 01:26:09;;;;;;;12.88;7.85;;;;;;;;;;4986647;28;20114;-67
2023/03/28 01:28:55;;;;;;;14.70;8.57;;;;;;;;;;4985827;28;20040;-67
2023/03/28 01:31:35;;;;;;;14.10;8.15;;;;;;;;;;4983585;28;20112;-66
2023/03/28 01:34:19;;;;;;;12.85;7.90;;;;;;;;;;4988543;28;20110;-67
2023/03/28 01:36:53;;;;;;;13.80;8.00;;;;;;;;;;4988661;28;20361;-67
2023/03/28 01:39:31;;;;;;;16.67;9.20;;;;;;;;;;4989923;28;20092;-67
2023/03/28 01:42:09;;;;;;;12.02;7.38;;;;;;;;;;4989344;28;20037;-67
2023/03/28 01:44:47;;;;;;;12.18;7.72;;;;;;;;;;4991697;28;20057;-67
2023/03/28 01:47:15;;;;;;;12.13;7.75;;;;;;;;;;4982994;28;20034;-67
2023/03/28 01:49:40;;;;;;;13.60;7.75;;;;;;;;;;4982695;28;20022;-67
2023/03/28 01:52:11;;;;;;;12.35;7.90;;;;;;;;;;4987574;28;20034;-68
2023/03/28 01:54:57;;;;;;;12.82;8.15;;;;;;;;;;4988854;28;20065;-67
2023/03/28 01:57:31;;;;;;;12.77;7.53;;;;;;;;;;4990351;28;20033;-67
2023/03/28 02:00:00;;;;;;;11.20;7.15;;;;;;;;;;4986826;28;20146;-67
2023/03/28 02:02:30;;;;;;;15.00;8.77;;;;;;;;;;4988169;28;20036;-69
2023/03/28 02:04:57;;;;;;;14.10;8.20;;;;;;;;;;4984563;28;20026;-67
2023/03/28 02:07:23;;;;;;;11.88;7.60;;;;;;;;;;4988642;28;20030;-68
2023/03/28 02:09:50;;;;;;;14.35;8.13;;;;;;;;;;4990289;28;20041;-68
2023/03/28 02:12:19;;;;;;;13.77;8.10;;;;;;;;;;4987860;28;20050;-66
2023/03/28 02:14:45;;;;;;;15.55;8.05;;;;;;;;;;4986233;28;20077;-67
2023/03/28 02:17:14;;;;;;;16.98;7.80;;;;;;;;;;4983692;28;20030;-67
2023/03/28 02:19:41;;;;;;;14.38;8.30;;;;;;;;;;4976564;28;20400;-68
2023/03/28 02:22:11;;;;;;;15.05;8.40;;;;;;;;;;4983685;28;20060;-68
2023/03/28 02:24:36;;;;;;;13.25;7.50;;;;;;;;;;4985819;28;20034;-68
2023/03/28 02:27:01;;;;;;;15.27;8.20;;;;;;;;;;4985163;28;20057;-66
2023/03/28 02:29:29;;;;;;;14.32;8.20;;;;;;;;;;4986851;28;20295;-67
2023/03/28 02:31:54;;;;;;;14.15;7.88;;;;;;;;;;4985641;28;20038;-68
2023/03/28 02:34:20;;;;;;;13.85;8.13;;;;;;;;;;4987030;28;20037;-68
2023/03/28 02:36:48;;;;;;;18.42;8.73;;;;;;;;;;4988361;28;20101;-68
2023/03/28 02:39:29;;;;;;;14.20;8.73;;;;;;;;;;4977938;28;20438;-67
2023/03/28 02:42:03;;;;;;;16.17;8.13;;;;;;;;;;4989539;28;20393;-67
2023/03/28 02:44:38;;;;;;;13.60;8.73;;;;;;;;;;4986878;28;20030;-68
2023/03/28 02:47:09;;;;;;;15.63;8.93;;;;;;;;;;4984378;28;20034;-67
2023/03/28 02:49:40;;;;;;;18.90;8.63;;;;;;;;;;4982447;28;20028;-67
2023/03/28 02:52:24;;;;;;;15.98;8.60;;;;;;;;;;4985358;28;20063;-68
2023/03/28 02:54:57;;;;;;;13.52;8.43;;;;;;;;;;4986751;28;20081;-68
2023/03/28 02:57:29;;;;;;;13.07;8.57;;;;;;;;;;4982297;28;20030;-67
2023/03/28 03:00:08;;;;;;;16.58;8.80;;;;;;;;;;4989917;28;20030;-67
2023/03/28 03:02:34;;;;;;;;;;;;;;;;;;4990210;28;20026;-67
2023/03/28 03:05:02;;;;;;;16.20;8.13;;;;;;;;;;4988961;28;19976;-67
2023/03/28 03:07:29;;;;;;;13.25;8.38;;;;;;;;;;4989979;28;20125;-67
2023/03/28 03:09:54;;;;;;;13.70;8.07;;;;;;;;;;4990591;28;20100;-67
2023/03/28 03:12:20;;;;;;;13.75;8.10;;;;;;;;;;4984430;28;20046;-66
2023/03/28 03:14:49;;;;;;;13.93;8.65;;;;;;;;;;4981766;28;20453;-67
2023/03/28 03:17:15;;;;;;;15.32;8.80;;;;;;;;;;4987482;28;20507;-68
2023/03/28 03:19:42;;;;;;;14.35;8.20;;;;;;;;;;4989658;28;20056;-67
2023/03/28 03:22:07;;;;;;;13.75;7.95;;;;;;;;;;4989651;28;20031;-68
2023/03/28 03:24:33;;;;;;;12.45;7.40;;;;;;;;;;4988701;28;20174;-67
2023/03/28 03:26:58;;;;;;;12.18;7.55;;;;;;;;;;4989326;28;20035;-67
2023/03/28 03:29:24;;;;;;;11.27;7.32;;;;;;;;;;4983109;28;20026;-67
2023/03/28 03:31:49;;;;;;;10.82;6.55;;;;;;;;;;4990685;28;20031;-68
2023/03/28 03:34:14;;;;;;;12.00;7.05;;;;;;;;;;4987705;28;20030;-66
2023/03/28 03:36:41;;;;;;;11.75;7.30;;;;;;;;;;4987811;28;20034;-67
2023/03/28 03:39:07;;;;;;;9.68;6.57;;;;;;;;;;4989696;28;20108;-67
2023/03/28 03:41:32;;;;;;;8.98;6.10;;;;;;;;;;4990026;28;20027;-68
2023/03/28 03:43:57;;;;;;;9.93;5.53;;;;;;;;;;4987416;28;20117;-68
2023/03/28 03:46:23;;;;;;;8.60;5.33;;;;;;;;;;4985850;28;20018;-67
2023/03/28 03:48:48;;;;;;;8.32;5.15;;;;;;;;;;4991595;28;20291;-67
2023/03/28 03:51:13;;;;;;;9.13;5.20;;;;;;;;;;4988684;28;20026;-68
2023/03/28 03:53:39;;;;;;;10.07;5.67;;;;;;;;;;4985775;28;20380;-67
2023/03/28 03:56:05;;;;;;;9.60;4.63;;;;;;;;;;4985301;28;20292;-68
2023/03/28 03:58:30;;;;;;;7.57;4.60;;;;;;;;;;4988164;28;20042;-68
2023/03/28 04:00:56;;;;;;;8.38;4.53;;;;;;;;;;4988477;28;20038;-68
2023/03/28 04:03:22;;;;;;;5.72;3.65;;;;;;;;;;4982083;28;20583;-68
2023/03/28 04:05:48;;;;;;;7.43;4.13;;;;;;;;;;4984159;28;20026;-69
2023/03/28 04:08:13;;;;;;;6.65;3.80;;;;;;;;;;4986019;28;20045;-67
2023/03/28 04:10:38;;;;;;;5.67;3.87;;;;;;;;;;4987950;28;20030;-66
2023/03/28 04:13:03;;;;;;;8.37;4.00;;;;;;;;;;4989007;28;20295;-67
2023/03/28 04:15:29;;;;;;;6.23;3.87;;;;;;;;;;4988750;28;20299;-66
2023/03/28 04:17:55;;;;;;;6.20;3.78;;;;;;;;;;4988166;28;20101;-66
2023/03/28 04:20:21;;;;;;;7.90;3.65;;;;;;;;;;4986039;28;20026;-67
2023/03/28 04:22:47;;;;;;;5.30;3.75;;;;;;;;;;4980694;28;20031;-67
2023/03/28 04:25:13;;;;;;;5.32;3.60;;;;;;;;;;4989293;28;20032;-66
2023/03/28 04:27:40;;;;;;;6.00;3.42;;;;;;;;;;4988752;28;20022;-66
2023/03/28 04:30:06;;;;;;;7.28;3.85;;;;;;;;;;4990491;28;20034;-66
2023/03/28 04:32:34;;;;;;;6.82;3.58;;;;;;;;;;4979407;28;20092;-67
2023/03/28 04:35:00;;;;;;;7.63;3.92;;;;;;;;;;4988593;28;20101;-67
2023/03/28 04:37:26;;;;;;;5.75;3.50;;;;;;;;;;4990158;28;20392;-66
2023/03/28 04:39:52;;;;;;;7.93;3.40;;;;;;;;;;4982214;28;20028;-67
2023/03/28 04:42:19;;;;;;;6.93;3.80;;;;;;;;;;4989223;28;20041;-67
2023/03/28 04:44:44;;;;;;;5.10;3.03;;;;;;;;;;4984939;28;20109;-67
2023/03/28 04:47:12;;;;;;;8.43;4.07;;;;;;;;;;4985960;28;20038;-66
2023/03/28 04:49:38;;;;;;;6.18;3.20;;;;;;;;;;4990258;28;20079;-66
2023/03/28 04:52:04;;;;;;;6.65;4.38;;;;;;;;;;4988041;28;20392;-67
2023/03/28 04:54:29;;;;;;;8.63;3.58;;;;;;;;;;4986178;28;20059;-67
2023/03/28 04:56:54;;;;;;;5.80;3.27;;;;;;;;;;4982397;28;20080;-66
2023/03/28 04:59:20;;;;;;;5.73;3.10;;;;;;;;;;4988178;28;20279;-66
2023/03/28 05:01:48;;;;;;;7.38;3.47;;;;;;;;;;4983695;28;20292;-66
2023/03/28 05:04:16;;;;;;;9.02;3.40;;;;;;;;;;4984678;28;20109;-67
2023/03/28 05:06:42;;;;;;;8.40;3.60;;;;;;;;;;4981171;28;20428;-66
2023/03/28 05:09:07;;;;;;;8.25;3.55;;;;;;;;;;4985424;28;20046;-65
2023/03/28 05:11:32;;;;;;;6.60;3.23;;;;;;;;;;4986223;28;20026;-67
2023/03/28 05:13:58;;;;;;;8.83;3.40;;;;;;;;;;4989434;28;20034;-66
2023/03/28 05:16:23;;;;;;;8.43;3.60;;;;;;;;;;4982545;28;20812;-66
2023/03/28 05:18:48;;;;;;;5.90;3.53;;;;;;;;;;4985741;28;20034;-67
2023/03/28 05:21:13;;;;;;;7.50;3.33;;;;;;;;;;4986596;28;20030;-67
2023/03/28 05:23:38;;;;;;;5.63;3.40;;;;;;;;;;4985115;28;20156;-67
2023/03/28 05:26:04;;;;;;;11.53;3.53;;;;;;;;;;4986007;28;20290;-67
2023/03/28 05:28:30;;;;;;;5.40;3.10;;;;;;;;;;4986445;28;20030;-66
2023/03/28 05:30:56;;;;;;;6.30;3.70;;;;;;;;;;4987751;28;20034;-67
2023/03/28 05:33:21;;;;;;;8.75;3.95;;;;;;;;;;4989334;28;20018;-67
2023/03/28 05:35:47;;;;;;;5.47;3.20;;;;;;;;;;4988354;28;20026;-68
2023/03/28 05:38:13;;;;;;;6.38;3.65;;;;;;;;;;4983929;28;20773;-67
2023/03/28 05:40:38;;;;;;;7.78;3.55;;;;;;;;;;4986246;28;20018;-69
2023/03/28 05:43:03;;;;;;;9.40;4.07;;;;;;;;;;4987267;28;20041;-67
2023/03/28 05:45:29;;;;;;;5.80;2.97;;;;;;;;;;4987762;28;20054;-67
2023/03/28 05:47:55;;;;;;;23.05;4.70;;;;;;;;;;4988409;28;20140;-67
2023/03/28 05:50:21;;;;;;;8.90;3.75;;;;;;;;;;4982239;28;20085;-67
2023/03/28 05:52:46;;;;;;;12.52;3.60;;;;;;;;;;4987226;28;20030;-68
2023/03/28 05:55:11;;;;;;;11.85;4.00;;;;;;;;;;4971325;28;20022;-68
2023/03/28 05:57:36;;;;;;;10.27;3.90;;;;;;;;;;4979960;28;20088;-68
2023/03/28 06:00:09;;;;;;;10.80;4.05;;;;;;;;;;4984047;28;20298;-67
2023/03/28 06:02:35;;;;;;;7.43;4.18;;;;;;;;;;4984729;28;20117;-68
2023/03/28 06:05:00;;;;;;;10.23;3.95;;;;;;;;;;4983273;28;21074;-68
2023/03/28 06:07:25;;;;;;;10.37;4.33;;;;;;;;;;4986486;28;20030;-70
2023/03/28 06:09:51;;;;;;;33.30;5.32;;;;;;;;;;4989718;28;20022;-69
2023/03/28 06:12:16;;;;;;;6.73;3.80;;;;;;;;;;4984038;28;20054;-69
2023/03/28 06:14:41;;;;;;;12.48;4.38;;;;;;;;;;4986516;28;20360;-72
2023/03/28 06:17:07;;;;;;;6.68;3.90;;;;;;;;;;4993346;28;20053;-71
2023/03/28 06:19:32;;;;;;;13.00;4.45;;;;;;;;;;4986449;28;20031;-70
2023/03/28 06:21:57;;;;;;;12.77;3.93;;;;;;;;;;4983817;28;20114;-71
2023/03/28 06:24:22;;;;;;;16.63;4.97;;;;;;;;;;4986548;28;20283;-70
2023/03/28 06:26:49;;;;;;;10.32;4.30;;;;;;;;;;4989366;28;20058;-70
2023/03/28 06:29:15;;;;;;;6.05;3.83;;;;;;;;;;4985638;28;20034;-70
2023/03/28 06:31:40;;;;;;;11.70;4.65;;;;;;;;;;4989954;28;20030;-70
2023/03/28 06:34:05;;;;;;;12.20;4.13;;;;;;;;;;4986720;28;20026;-71
2023/03/28 06:36:30;;;;;;;9.10;4.20;;;;;;;;;;4990007;28;20287;-68
2023/03/28 06:38:57;;;;;;;8.70;3.80;;;;;;;;;;4991268;28;20526;-68
2023/03/28 06:41:22;;;;;;;10.10;4.47;;;;;;;;;;4998369;28;20804;-67
2023/03/28 06:43:47;;;;;;;6.28;3.38;;;;;;;;;;4990212;28;20030;-68
2023/03/28 06:46:15;;;;;;;6.00;3.77;;;;;;;;;;4987958;28;20105;-68
2023/03/28 06:48:40;;;;;;;7.75;3.60;;;;;;;;;;4989651;28;21113;-68
2023/03/28 06:51:05;;;;;;;7.60;3.42;;;;;;;;;;4988500;28;20160;-68
2023/03/28 06:53:31;;;;;;;8.02;3.72;;;;;;;;;;4985989;28;20053;-68
2023/03/28 06:55:56;;;;;;;8.60;3.50;;;;;;;;;;4990886;28;20042;-68
2023/03/28 06:58:22;;;;;;;8.02;3.83;;;;;;;;;;4988861;28;20287;-68
2023/03/28 07:00:47;;;;;;;6.85;3.92;;;;;;;;;;4988562;28;20112;-68
2023/03/28 07:03:12;;;;;;;8.63;3.42;;;;;;;;;;4988947;28;20045;-69
2023/03/28 07:05:39;;;;;;;7.28;3.90;;;;;;;;;;4991846;28;20022;-70
2023/03/28 07:08:05;;;;;;;8.10;3.90;;;;;;;;;;4986095;28;20493;-68
2023/03/28 07:10:30;;;;;;;9.63;3.53;;;;;;;;;;4986757;28;20038;-69
2023/03/28 07:12:55;;;;;;;8.17;3.90;;;;;;;;;;4984764;28;20059;-68
2023/03/28 07:15:20;;;;;;;6.20;3.23;;;;;;;;;;4982908;28;20821;-68
2023/03/28 07:17:46;;;;;;;7.27;3.70;;;;;;;;;;4988276;28;20095;-69
2023/03/28 07:20:11;;;;;;;9.93;3.80;;;;;;;;;;4987470;28;20300;-70
2023/03/28 07:22:36;;;;;;;4.80;3.15;;;;;;;;;;4986802;28;20034;-68
2023/03/28 07:25:01;;;;;;;9.37;3.73;;;;;;;;;;4986423;28;20034;-68
2023/03/28 07:27:27;;;;;;;8.00;3.72;;;;;;;;;;4989160;28;20370;-68
2023/03/28 07:29:52;;;;;;;6.17;3.30;;;;;;;;;;4986133;28;20027;-68
2023/03/28 07:32:17;;;;;;;9.40;3.67;;;;;;;;;;4989248;28;20941;-70
2023/03/28 07:34:42;;;;;;;6.30;3.27;;;;;;;;;;4988820;28;20117;-69
2023/03/28 07:37:08;;;;;;;8.45;3.65;;;;;;;;;;4991157;28;20747;-68
2023/03/28 07:39:38;;;;;;;7.75;4.00;;;;;;;;;;4987986;28;20043;-68
2023/03/28 07:42:03;;;;;;;9.25;3.70;;;;;;;;;;4988628;28;20030;-68
2023/03/28 07:44:29;;;;;;;11.18;3.70;;;;;;;;;;4987550;28;20038;-68
2023/03/28 07:46:54;;;;;;;7.72;3.72;;;;;;;;;;4986705;28;20029;-68
2023/03/28 07:49:19;;;;;;;10.90;4.60;;;;;;;;;;4990377;28;20026;-68
2023/03/28 07:51:46;;;;;;;6.05;3.30;;;;;;;;;;4987780;28;20276;-69
2023/03/28 07:54:16;;;;;;;7.32;3.40;;;;;;;;;;4985289;28;20038;-70
2023/03/28 07:56:42;;;;;;;10.50;4.47;;;;;;;;;;4985470;28;20381;-69
2023/03/28 07:59:07;;;;;;;6.15;3.17;;;;;;;;;;4988104;28;20045;-69
2023/03/28 08:01:32;;;;;;;7.33;3.47;;;;;;;;;;4987846;28;20496;-69
2023/03/28 08:03:58;;;;;;;9.33;4.07;;;;;;;;;;4986794;28;20279;-69
2023/03/28 08:06:25;;;;;;;11.40;4.65;;;;;;;;;;4989392;28;20026;-69
2023/03/28 08:08:50;;;;;;;6.25;3.53;;;;;;;;;;4988197;28;20165;-68
2023/03/28 08:11:16;;;;;;;9.02;4.07;;;;;;;;;;4987949;28;20120;-68
2023/03/28 08:13:41;;;;;;;7.40;3.35;;;;;;;;;;4997729;28;20030;-69
2023/03/28 08:16:06;;;;;;;10.43;3.70;;;;;;;;;;4989235;28;20053;-68
2023/03/28 08:18:32;;;;;;;7.32;3.92;;;;;;;;;;4985781;28;20286;-69
2023/03/28 08:20:59;;;;;;;8.05;3.78;;;;;;;;;;4987400;28;20653;-67
2023/03/28 08:23:25;;;;;;;6.25;3.55;;;;;;;;;;4987652;28;20034;-67
2023/03/28 08:25:50;;;;;;;8.43;3.88;;;;;;;;;;4986404;28;20022;-67
2023/03/28 08:28:16;;;;;;;5.70;3.40;;;;;;;;;;4989498;28;20065;-67
2023/03/28 08:30:41;;;;;;;12.25;3.75;;;;;;;;;;4987132;28;20023;-67
2023/03/28 08:33:06;;;;;;;7.63;3.77;;;;;;;;;;4987355;28;20030;-67
2023/03/28 08:35:32;;;;;;;6.73;3.83;;;;;;;;;;4988295;28;20734;-70
2023/03/28 08:37:57;;;;;;;8.32;3.72;;;;;;;;;;4989253;28;20480;-71
2023/03/28 08:40:24;;;;;;;7.85;3.72;;;;;;;;;;4987644;28;20615;-72
2023/03/28 08:42:59;;;;;;;7.35;3.97;;;;;;;;;;4989663;28;20041;-71
2023/03/28 08:45:24;;;;;;;8.85;3.75;;;;;;;;;;4991448;28;20068;-73
2023/03/28 08:47:54;;;;;;;9.57;3.50;;;;;;;;;;4988472;28;20030;-72
2023/03/28 08:50:58;;;;;;;6.47;3.55;;;;;;;;;;4990461;28;20393;-75
2023/03/28 08:53:34;;;;;;;5.90;3.30;;;;;;;;;;4927562;29;20147;-73
2023/03/28 08:56:01;;;;;;;8.25;3.17;;;;;;;;;;4929113;29;20098;-72
2023/03/28 08:58:30;;;;;;;5.95;3.20;;;;;;;;;;4930191;29;20119;-72
2023/03/28 09:00:55;;;;;;;;;;;;;;;;;;4929135;29;20031;-72
2023/03/28 09:03:21;;;;;;;5.45;3.22;;;;;;;;;;4927924;29;19919;-72
2023/03/28 09:05:50;;;;;;;5.72;2.40;;;;;;;;;;4928718;29;20055;-72
2023/03/28 09:08:31;;;;;;;5.15;2.67;;;;;;;;;;4928974;29;20050;-72
2023/03/28 09:11:02;;;;;;;11.65;3.35;;;;;;;;;;4923566;29;20152;-71
2023/03/28 09:13:36;;;;;;;4.90;2.88;;;;;;;;;;4927282;29;20070;-72
2023/03/28 09:16:15;;;;;;;10.13;3.67;;;;;;;;;;4931234;29;20031;-72
2023/03/28 09:19:10;;;;;;;7.15;3.55;;;;;;;;;;4914621;29;20063;-72
2023/03/28 09:21:53;;;;;;;7.97;4.25;;;;;;;;;;4916197;29;20040;-72
2023/03/28 09:24:30;;;;;;;9.55;3.97;;;;;;;;;;4950908;28;20131;-72
2023/03/28 09:27:01;;;;;;;12.82;4.63;;;;;;;;;;4988793;28;20030;-72
2023/03/28 09:29:29;;;;;;;10.02;4.20;;;;;;;;;;4989901;28;20023;-72
2023/03/28 09:32:00;;;;;;;7.43;3.55;;;;;;;;;;4988312;28;20456;-72
2023/03/28 09:34:27;;;;;;;8.27;3.20;;;;;;;;;;4987852;28;20035;-72
2023/03/28 09:36:56;;;;;;;8.55;3.53;;;;;;;;;;4986419;28;20053;-72
2023/03/28 09:39:35;;;;;;;5.95;3.20;;;;;;;;;;4986295;28;20432;-72
2023/03/28 09:42:01;;;;;;;6.60;3.10;;;;;;;;;;4986358;28;20034;-72
2023/03/28 09:44:28;;;;;;;7.38;3.63;;;;;;;;;;4983609;28;20025;-71
2023/03/28 09:46:55;;;;;;;5.70;2.90;;;;;;;;;;4988332;28;20018;-71
2023/03/28 09:49:22;;;;;;;4.38;2.75;;;;;;;;;;4989359;28;20034;-71
2023/03/28 09:51:49;;;;;;;5.65;3.20;;;;;;;;;;4988644;28;20503;-70
2023/03/28 09:54:14;;;;;;;10.00;3.70;;;;;;;;;;4984556;28;20375;-70
2023/03/28 09:56:42;;;;;;;5.32;3.00;;;;;;;;;;4989348;28;20035;-70
2023/03/28 09:59:11;;;;;;;5.78;2.80;;;;;;;;;;4987467;28;20956;-70
2023/03/28 10:01:48;;;;;;;8.18;3.50;;;;;;;;;;4990657;28;20057;-70
2023/03/28 10:04:16;;;;;;;7.30;3.25;;;;;;;;;;4980411;28;20026;-70
2023/03/28 10:06:43;;;;;;;7.85;3.60;;;;;;;;;;4978905;28;20105;-70
2023/03/28 10:09:17;;;;;;;7.43;3.67;;;;;;;;;;4987268;28;20022;-66
2023/03/28 10:11:47;;;;;;;6.10;3.45;;;;;;;;;;4976934;28;20042;-66
2023/03/28 10:14:42;;;;;;;6.32;3.60;;;;;;;;;;4990067;28;20049;-67
2023/03/28 10:17:19;;;;;;;6.45;3.53;;;;;;;;;;4976754;28;20050;-66
2023/03/28 10:19:46;;;;;;;8.93;3.58;;;;;;;;;;4990649;28;20061;-67
2023/03/28 10:22:11;;;;;;;7.88;3.38;;;;;;;;;;4990319;28;20392;-67
2023/03/28 10:24:38;;;;;;;7.30;4.25;;;;;;;;;;4989811;28;20034;-67
2023/03/28 10:27:06;;;;;;;9.32;3.92;;;;;;;;;;4991423;28;20837;-67
2023/03/28 10:29:32;;;;;;;9.82;4.50;;;;;;;;;;4991658;28;20038;-67
2023/03/28 10:31:57;;;;;;;6.47;3.65;;;;;;;;;;4987862;28;20392;-71
2023/03/28 10:34:27;;;;;;;4.45;2.95;;;;;;;;;;4988646;28;20582;-71
2023/03/28 10:36:52;;;;;;;;;;;;;;;;;;4988761;28;20075;-71
2023/03/28 10:39:20;;;;;;;4.05;3.00;;;;;;;;;;4988516;28;20003;-71
2023/03/28 10:41:52;;;;;;;11.73;3.90;;;;;;;;;;4992028;28;20526;-71
2023/03/28 10:44:24;;;;;;;6.00;3.25;;;;;;;;;;4989618;28;20110;-71
2023/03/28 10:46:50;;;;;;;6.80;3.72;;;;;;;;;;4988233;28;20377;-71
2023/03/28 10:49:16;;;;;;;8.80;4.38;;;;;;;;;;4988576;28;20032;-71
2023/03/28 10:51:42;;;;;;;4.65;3.60;;;;;;;;;;4989664;28;20100;-72
2023/03/28 10:54:17;;;;;;;14.32;5.03;;;;;;;;;;4990053;28;20033;-71
2023/03/28 10:56:43;;;;;;;6.38;3.67;;;;;;;;;;4985097;28;20127;-71
2023/03/28 10:59:08;;;;;;;8.23;4.20;;;;;;;;;;4991599;28;20141;-70
2023/03/28 11:01:39;;;;;;;7.40;3.20;;;;;;;;;;4990010;28;20121;-70
2023/03/28 11:04:18;;;;;;;5.38;3.70;;;;;;;;;;4989709;28;20373;-70
2023/03/28 11:06:43;;;;;;;6.68;3.45;;;;;;;;;;4988115;28;20493;-71
2023/03/28 11:09:14;;;;;;;6.83;3.47;;;;;;;;;;4990487;28;20768;-71
2023/03/28 11:12:06;;;;;;;9.63;4.25;;;;;;;;;;4989781;28;21059;-71
2023/03/28 11:14:38;;;;;;;5.38;3.40;;;;;;;;;;4983100;28;20404;-70
2023/03/28 11:17:11;;;;;;;5.70;3.40;;;;;;;;;;4985740;28;20431;-70
2023/03/28 11:19:36;;;;;;;5.38;3.50;;;;;;;;;;4987930;28;20026;-70
2023/03/28 11:22:07;;;;;;;5.50;3.40;;;;;;;;;;4989212;28;20510;-66
2023/03/28 11:24:53;;;;;;;6.22;3.83;;;;;;;;;;4988908;28;20034;-67
2023/03/28 11:27:18;;;;;;;5.60;3.45;;;;;;;;;;4976255;28;20057;-66
2023/03/28 11:29:48;;;;;;;6.23;3.10;;;;;;;;;;4990653;28;20034;-67
2023/03/28 11:32:28;;;;;;;7.28;2.72;;;;;;;;;;4985639;28;20041;-66
2023/03/28 11:35:12;;;;;;;6.95;3.47;;;;;;;;;;4987637;28;20548;-65
2023/03/28 11:37:52;;;;;;;5.25;3.17;;;;;;;;;;4984020;28;20038;-66
2023/03/28 11:40:18;;;;;;;;;;;;;;;;;;4990607;28;20041;-66
2023/03/28 11:42:46;;;;;;;4.45;2.83;;;;;;;;;;4987624;28;19913;-67
2023/03/28 11:45:11;;;;;;;6.13;3.40;;;;;;;;;;4987251;28;20030;-66
2023/03/28 11:48:04;;;;;;;5.80;3.00;;;;;;;;;;4985853;28;20037;-70
2023/03/28 11:50:45;;;;;;;6.13;2.80;;;;;;;;;;4991257;28;20034;-69
2023/03/28 11:53:14;;;;;;;3.70;2.35;;;;;;;;;;4986453;28;20034;-70
2023/03/28 11:55:47;;;;;;;3.67;2.28;;;;;;;;;;4986587;28;20397;-67
2023/03/28 11:58:15;;;;;;;5.72;2.80;;;;;;;;;;4978377;28;20034;-66
2023/03/28 12:00:47;;;;;;;12.85;3.60;;;;;;;;;;4985744;28;20018;-67
2023/03/28 12:03:22;;;;;;;3.25;2.25;;;;;;;;;;4985902;28;20034;-67
2023/03/28 12:05:53;;;;;;;3.08;1.83;;;;;;;;;;4986255;28;20037;-67
2023/03/28 12:08:25;;;;;;;3.45;1.60;;;;;;;;;;4985959;28;20034;-67
2023/03/28 12:10:57;;;;;;;4.80;2.30;;;;;;;;;;4989056;28;20034;-67
2023/03/28 12:13:41;;;;;;;7.45;2.35;;;;;;;;;;4986438;28;20108;-67
2023/03/28 12:16:13;;;;;;;7.65;2.55;;;;;;;;;;4983496;28;20026;-67
2023/03/28 12:18:46;;;;;;;8.45;2.60;;;;;;;;;;4982135;28;20080;-68
2023/03/28 12:21:22;;;;;;;9.95;2.58;;;;;;;;;;4988309;28;20026;-68
2023/03/28 12:23:47;;;;;;;8.30;2.83;;;;;;;;;;4985229;28;20457;-67
2023/03/28 12:26:17;;;;;;;8.00;2.60;;;;;;;;;;4986466;28;20029;-68
2023/03/28 12:28:49;;;;;;;3.90;2.30;;;;;;;;;;4986473;28;20668;-67
2023/03/28 12:31:18;;;;;;;4.13;2.38;;;;;;;;;;4984282;28;20113;-67
2023/03/28 12:33:46;;;;;;;2.50;1.05;;;;;;;;;;4986636;28;20117;-67
2023/03/28 12:36:20;;;;;;;2.58;1.15;;;;;;;;;;4989819;28;20072;-68
2023/03/28 12:39:16;;;;;;;3.15;1.83;;;;;;;;;;4987436;28;20038;-67
2023/03/28 12:41:42;;;;;;;3.55;1.80;;;;;;;;;;4983353;28;20400;-66
2023/03/28 12:44:23;;;;;;;3.42;1.63;;;;;;;;;;4961456;28;20117;-67
2023/03/28 12:46:52;;;;;;;4.65;2.13;;;;;;;;;;4980547;28;20026;-67
2023/03/28 12:49:31;;;;;;;3.67;1.75;;;;;;;;;;4983468;28;20067;-67
2023/03/28 12:51:56;;;;;;;;;;;;;;;;;;4982679;28;20110;-66
2023/03/28 12:54:23;;;;;;;3.22;2.05;;;;;;;;;;4987494;28;19921;-66
2023/03/28 12:57:01;;;;;;;2.92;1.80;;;;;;;;;;4981037;28;20031;-66
2023/03/28 12:59:39;;;;;;;4.82;2.28;;;;;;;;;;4988578;28;20468;-66
2023/03/28 13:02:23;;;;;;;2.88;1.70;;;;;;;;;;4985223;28;20388;-68
2023/03/28 13:04:48;;;;;;;4.07;2.00;;;;;;;;;;4985705;28;20539;-67
2023/03/28 13:07:33;;;;;;;5.50;2.10;;;;;;;;;;4989552;28;20038;-68
2023/03/28 13:10:23;;;;;;;4.05;2.40;;;;;;;;;;4989756;28;20037;-68
2023/03/28 13:13:07;;;;;;;5.28;2.70;;;;;;;;;;4988508;28;20050;-68
2023/03/28 13:15:33;;;;;;;3.17;2.17;;;;;;;;;;4986722;28;20026;-68
2023/03/28 13:18:18;;;;;;;3.30;1.80;;;;;;;;;;4989068;28;20642;-68
2023/03/28 13:20:44;;;;;;;5.22;1.70;;;;;;;;;;4987430;28;20041;-68
2023/03/28 13:23:12;;;;;;;4.88;1.80;;;;;;;;;;4985414;28;20030;-68
2023/03/28 13:25:37;;;;;;;6.53;1.77;;;;;;;;;;4982851;28;20111;-68
2023/03/28 13:28:11;;;;;;;5.30;1.40;;;;;;;;;;4986459;28;20668;-68
2023/03/28 13:30:41;;;;;;;5.32;1.85;;;;;;;;;;4988266;28;20037;-68
2023/03/28 13:33:15;;;;;;;3.42;1.60;;;;;;;;;;4987731;28;20038;-68
2023/03/28 13:35:47;;;;;;;9.18;2.17;;;;;;;;;;4983739;28;20609;-68
2023/03/28 13:38:28;;;;;;;6.40;2.10;;;;;;;;;;4984555;28;20032;-70
2023/03/28 13:40:54;;;;;;;3.33;1.58;;;;;;;;;;4986084;28;20038;-69
2023/03/28 13:43:40;;;;;;;4.32;1.67;;;;;;;;;;4986375;28;20030;-70
2023/03/28 13:46:13;;;;;;;3.47;1.70;;;;;;;;;;4984074;28;20520;-70
2023/03/28 13:48:59;;;;;;;5.68;1.83;;;;;;;;;;4987241;28;20029;-69
2023/03/28 13:51:27;;;;;;;2.17;1.40;;;;;;;;;;4986431;28;20050;-69
2023/03/28 13:53:53;;;;;;;4.07;2.23;;;;;;;;;;4981714;28;20038;-68
2023/03/28 13:56:22;;;;;;;7.20;2.60;;;;;;;;;;4979794;28;20281;-69
2023/03/28 13:58:49;;;;;;;11.77;3.80;;;;;;;;;;4979317;28;20636;-69
2023/03/28 14:01:15;;;;;;;11.30;3.63;;;;;;;;;;4979454;28;20039;-69
2023/03/28 14:03:41;;;;;;;10.23;3.50;;;;;;;;;;4982927;28;20593;-69
2023/03/28 14:06:26;;;;;;;10.10;2.43;;;;;;;;;;4986327;28;20029;-70
2023/03/28 14:08:53;;;;;;;17.33;5.05;;;;;;;;;;4988733;28;20363;-69
2023/03/28 14:11:30;;;;;;;12.40;4.72;;;;;;;;;;4988337;28;20030;-68
2023/03/28 14:14:13;;;;;;;5.63;2.38;;;;;;;;;;4986138;28;20041;-69
2023/03/28 14:16:40;;;;;;;2.33;1.35;;;;;;;;;;4986077;28;20018;-67
2023/03/28 14:19:07;;;;;;;2.03;1.10;;;;;;;;;;4976595;28;20531;-67
2023/03/28 14:21:33;;;;;;;3.42;1.33;;;;;;;;;;4987807;28;20037;-67
2023/03/28 14:24:00;;;;;;;2.97;1.30;;;;;;;;;;4987451;28;20034;-66
2023/03/28 14:26:27;;;;;;;3.53;1.70;;;;;;;;;;4986347;28;20388;-68
2023/03/28 14:28:56;;;;;;;3.30;1.00;;;;;;;;;;4986217;28;20698;-67
2023/03/28 14:31:21;;;;;;;;;;;;;;;;;;4986697;28;20037;-66
2023/03/28 14:33:48;;;;;;;10.38;1.30;;;;;;;;;;4985644;28;19914;-67
2023/03/28 14:36:13;;;;;;;6.40;1.40;;;;;;;;;;4986396;28;20026;-67
2023/03/28 14:38:39;;;;;;;3.10;1.03;;;;;;;;;;4983850;28;20045;-67
2023/03/28 14:41:06;;;;;;;3.28;0.95;;;;;;;;;;4985180;28;20795;-66
2023/03/28 14:43:31;;;;;;;1.90;1.38;;;;;;;;;;4984744;28;20031;-69
2023/03/28 14:46:01;;;;;;;3.17;1.13;;;;;;;;;;4986166;28;20396;-68
2023/03/28 14:48:27;;;;;;;3.92;1.48;;;;;;;;;;4986015;28;20280;-68
2023/03/28 14:50:53;;;;;;;2.17;1.10;;;;;;;;;;4982625;28;20030;-67